Stunt Ranch Reserve, Santa Monica Mtns, California Weather observations

Data are for 10 minute period ending at time listed.
 Day   Time   Solar   Ave.   Ave.  Ave.  Vector  Max.   Baro.   Total    
  of    of     Rad.   Air    Rel.  Wind   Wind   Wind  Press.  Precip.   
Year   Day            Temp.  Hum.  Speed  Dir.   Gust                    
2016   (PST)  Kw/m2    F      %     mph   deg.    mph    mb.     in.     
-------------------------------------------------------------------------
 241    0:00   0.00   61.9    74    0.4     7     1.1   969.5    0.00 
 241    0:10   0.00   61.9    74    0.8   284     2.0   969.5    0.00 
 241    0:20   0.00   61.6    74    1.2   145     2.6   969.5    0.00 
 241    0:30   0.00   62.1    72    0.7   293     2.2   969.5    0.00 
 241    0:40   0.00   62.1    73    0.5   295     1.5   969.5    0.00 
 241    0:50   0.00   61.8    74    1.7   236     2.9   969.5    0.00 
 241    1:00   0.00   61.7    74    0.5   250     2.5   969.5    0.00 
 241    1:10   0.00   61.4    76    0.9   190     1.6   969.5    0.00 
 241    1:20   0.00   61.3    76    0.8   153     2.3   969.5    0.00 
 241    1:30   0.00   61.2    76    1.0   108     2.4   969.5    0.00 
 241    1:40   0.00   60.8    78    1.1    47     3.3   969.5    0.00 
 241    1:50   0.00   60.4    79    0.8    47     3.0   969.5    0.00 
 241    2:00   0.00   59.8    80    1.9   130     3.3   969.5    0.00 
 241    2:10   0.00   59.9    81    1.3   254     2.5   969.5    0.00 
 241    2:20   0.00   59.5    81    1.3   251     2.5   969.5    0.00 
 241    2:30   0.00   59.6    80    0.4   314     1.3   969.5    0.00 
 241    2:40   0.00   59.6    80    0.5   146     1.5   969.5    0.00 
 241    2:50   0.00   59.7    80    0.0   255     0.6   969.5    0.00 
 241    3:00   0.00   59.6    80    0.3   282     0.9   969.2    0.00 
 241    3:10   0.00   59.5    80    1.4   258     2.4   969.2    0.00 
 241    3:20   0.00   59.3    80    1.8   269     2.9   969.2    0.00 
 241    3:30   0.00   59.4    78    0.2   204     0.9   969.2    0.00 
 241    3:40   0.00   59.8    77    0.3   127     1.4   969.5    0.00 
 241    3:50   0.00   60.0    77    0.4   223     1.5   969.5    0.00 
 241    4:00   0.00   59.9    80    0.7   278     1.2   969.5    0.00 
 241    4:10   0.00   59.6    79    0.3   178     1.2   969.5    0.00 
 241    4:20   0.00   59.7    79    0.7   263     1.5   969.5    0.00 
 241    4:30   0.00   59.5    79    0.3   187     1.2   969.5    0.00 
 241    4:40   0.00   59.6    79    0.5   262     0.9   969.5    0.00 
 241    4:50   0.00   59.5    80    0.4   223     1.5   969.5    0.00 
 241    5:00   0.00   59.4    80    0.4   179     1.5   969.5    0.00 
 241    5:10   0.00   59.8    79    0.5   161     1.2   969.9    0.00 
 241    5:20   0.00   59.9    79    0.9   122     2.4   969.9    0.00 
 241    5:30   0.00   60.2    78    0.9   127     1.8   969.9    0.00 
 241    5:40   0.01   60.5    75    1.2    86     1.8   969.9    0.00 
 241    5:50   0.01   60.9    73    0.2   104     1.3   970.2    0.00 
 241    6:00   0.03   61.0    73    0.4   110     1.1   970.2    0.00 
 241    6:10   0.03   61.3    72    0.9   124     1.4   970.2    0.00 
 241    6:20   0.03   61.5    71    0.5   131     1.5   970.2    0.00 
 241    6:30   0.09   62.1    70    0.3    14     1.3   970.5    0.00 
 241    6:40   0.15   64.6    64    0.6   110     1.9   970.5    0.00 
 241    6:50   0.18   66.6    60    0.8   104     1.6   970.5    0.00 
 241    7:00   0.22   67.9    58    0.9    96     2.0   970.5    0.00 
 241    7:10   0.25   69.4    56    1.2   109     2.0   970.5    0.00 
 241    7:20   0.28   70.3    56    1.0   321     1.9   970.5    0.00 
 241    7:30   0.32   72.1    54    1.9   298     2.7   970.5    0.00 
 241    7:40   0.36   72.8    53    1.3   297     2.0   970.5    0.00 
 241    7:50   0.39   72.8    54    1.0   311     1.9   970.5    0.00 
 241    8:00   0.43   72.4    55    1.4   313     2.3   970.5    0.00 
 241    8:10   0.46   74.4    52    1.8   296     3.4   970.5    0.00 
 241    8:20   0.49   76.3    50    2.1   287     4.1   970.5    0.00 
 241    8:30   0.53   76.7    49    2.0   298     3.9   970.2    0.00 
 241    8:40   0.56   77.8    47    2.3   289     3.9   970.2    0.00 
 241    8:50   0.58   78.4    45    2.3   288     5.2   970.2    0.00 
 241    9:00   0.62   80.6    43    2.9   291     6.2   970.2    0.00 
 241    9:10   0.65   81.3    41    2.7   290     5.2   970.2    0.00 
 241    9:20   0.67   80.9    41    2.1   280     5.3   970.2    0.00 
 241    9:30   0.70   80.9    40    2.5   303     4.7   970.2    0.00 
 241    9:40   0.72   82.3    38    2.6   286     6.0   970.2    0.00 
 241    9:50   0.75   83.7    37    2.4   266     6.0   970.2    0.00 
 241   10:00   0.77   84.3    37    3.2   301     6.4   970.2    0.00 
 241   10:10   0.79   86.5    35    3.6   288     6.3   970.5    0.00 
 241   10:20   0.81   87.1    35    3.3   290     6.7   970.5    0.00 
 241   10:30   0.82   87.4    34    3.4   283     7.1   970.5    0.00 
 241   10:40   0.84   87.7    33    3.3   292     6.6   970.5    0.00 
 241   10:50   0.85   89.3    32    3.4   293     6.9   970.5    0.00 
 241   11:00   0.86   90.6    30    4.2   279     8.9   970.5    0.00 
 241   11:10   0.88   91.8    28    4.3   284     7.6   970.5    0.00 
 241   11:20   0.89   92.1    26    3.8   290     8.1   970.5    0.00 
 241   11:30   0.89   92.8    26    4.6   283     8.3   970.5    0.00 
 241   11:40   0.89   93.7    25    3.8   287     8.6   970.5    0.00 
 241   11:50   0.89   93.0    25    4.5   280     9.0   970.5    0.00 
 241   12:00   0.89   94.4    25    4.5   275     9.3   970.2    0.00 
 241   12:10   0.89   95.4    25    3.5   280     9.6   970.2    0.00 
 241   12:20   0.89   95.1    25    4.2   280    10.1   970.2    0.00 
 241   12:30   0.89   95.4    25    5.2   277     9.4   970.2    0.00 
 241   12:40   0.88   96.6    25    4.9   280    10.4   970.2    0.00 
 241   12:50   0.87   95.9    26    4.9   271    10.1   969.9    0.00 
 241   13:00   0.82   96.0    25    3.9   280     7.9   969.9    0.00 
 241   13:10   0.85   95.4    26    3.5   287     9.3   969.5    0.00 
 241   13:20   0.83   96.7    25    4.1   283    11.0   969.5    0.00 
 241   13:30   0.82   97.1    25    5.4   279    11.0   969.5    0.00 
 241   13:40   0.80   97.1    26    3.9   279    10.4   969.5    0.00 
 241   13:50   0.79   97.5    25    6.1   279    13.0   969.2    0.00 
 241   14:00   0.76   96.2    25    5.7   272    11.5   969.2    0.00 
 241   14:10   0.74   97.1    25    4.5   283    12.1   969.2    0.00 
 241   14:20   0.72   97.5    24    4.3   289     8.8   969.2    0.00 
 241   14:30   0.70   97.4    23    4.5   280    11.2   968.8    0.00 
 241   14:40   0.67   97.5    23    4.4   290    11.3   968.8    0.00 
 241   14:50   0.64   97.1    23    4.4   284    11.2   968.8    0.00 
 241   15:00   0.62   96.8    22    4.0   296     9.7   968.8    0.00 
 241   15:10   0.59   96.8    21    4.1   284     8.9   968.5    0.00 
 241   15:20   0.56   96.0    21    3.5   290    10.1   968.5    0.00 
 241   15:30   0.53   96.7    20    4.3   283     8.9   968.5    0.00 
 241   15:40   0.50   96.3    21    4.1   284    11.3   968.5    0.00 
 241   15:50   0.47   96.4    20    3.3   292     8.6   968.5    0.00 
 241   16:00   0.43   95.9    20    4.4   286    12.9   968.5    0.00 
 241   16:10   0.40   95.1    20    2.5   305    13.1   968.5    0.00 
 241   16:20   0.36   95.3    18    2.4   296     9.5   968.5    0.00 
 241   16:30   0.33   94.7    18    2.6   286     9.1   968.5    0.00 
 241   16:40   0.29   93.5    19    2.8   302     8.9   968.5    0.00 
 241   16:50   0.26   92.5    20    3.0   300     7.7   968.5    0.00 
 241   17:00   0.23   91.7    21    2.1   292     9.1   968.5    0.00 
 241   17:10   0.19   90.7    23    2.8   310     6.6   968.5    0.00 
 241   17:20   0.16   89.1    24    3.1   313     8.8   968.5    0.00 
 241   17:30   0.13   87.2    26    1.9   309     5.6   968.5    0.00 
 241   17:40   0.10   84.8    29    1.1   328     4.7   968.2    0.00 
 241   17:50   0.07   83.1    31    1.1   306     5.3   968.2    0.00 
 241   18:00   0.03   82.0    33    1.4   307     5.6   968.2    0.00 
 241   18:10   0.02   80.5    35    1.5   301     6.1   967.8    0.00 
 241   18:20   0.01   79.4    38    2.1   274     5.8   967.8    0.00 
 241   18:30   0.01   78.2    40    1.4   255     3.1   967.8    0.00 
 241   18:40   0.00   77.0    42    1.4   238     2.3   967.8    0.00 
 241   18:50   0.00   76.1    43    1.1   216     2.2   967.8    0.00 
 241   19:00   0.00   75.3    45    1.3   347     3.4   967.8    0.00 
 241   19:10   0.00   74.5    46    1.2   134     3.1   968.2    0.00 
 241   19:20   0.00   73.9    47    1.5   138     2.9   968.2    0.00 
 241   19:30   0.00   73.6    48    0.6   130     2.6   968.2    0.00 
 241   19:40   0.00   73.5    47    1.1   169     2.3   968.5    0.00 
 241   19:50   0.00   73.7    47    1.3   248     2.1   968.5    0.00 
 241   20:00   0.00   72.6    50    1.9   279     3.1   968.8    0.00 
 241   20:10   0.00   71.8    52    1.6   274     2.7   968.8    0.00 
 241   20:20   0.00   71.0    56    1.9   294     4.9   968.8    0.00 
 241   20:30   0.00   70.7    57    0.9   173     2.8   969.2    0.00 
 241   20:40   0.00   70.4    57    0.4   143     1.4   969.2    0.00 
 241   20:50   0.00   70.3    57    0.0   105     0.7   969.2    0.00 
 241   21:00   0.00   70.1    59    0.3    14     1.3   969.2    0.00 
 241   21:10   0.00   69.8    59    1.3   158     3.1   969.2    0.00 
 241   21:20   0.00   69.8    58    1.0   124     2.6   969.2    0.00 
 241   21:30   0.00   69.8    58    0.5   281     1.8   969.2    0.00 
 241   21:40   0.00   69.7    58    0.3   252     2.0   969.2    0.00 
 241   21:50   0.00   69.8    54    0.6   100     1.6   969.2    0.00 
 241   22:00   0.00   70.7    51    0.7   118     2.4   969.2    0.00 
 241   22:10   0.00   70.5    52    1.8   268     3.3   969.2    0.00 
 241   22:20   0.00   70.1    53    0.9   123     1.8   969.2    0.00 
 241   22:30   0.00   70.3    49    1.2   114     2.3   969.2    0.00 
 241   22:40   0.00   71.9    43    1.0   132     2.5   969.2    0.00 
 241   22:50   0.00   72.9    41    0.3   259     1.5   969.2    0.00 
 241   23:00   0.00   73.1    41    0.6    62     2.6   969.2    0.00 

Return to Stunt Ranch Reserve graphs page.


Western Regional Climate Center,wrcc@dri.edu